createdAt,value
2018-08-10T00:00:54.311Z,58.45
2018-08-10T00:03:23.216Z,58.45
2018-08-10T00:05:52.145Z,58.77
2018-08-10T00:08:21.301Z,58.36
2018-08-10T00:10:50.227Z,59.08
2018-08-10T00:13:19.163Z,59.08
2018-08-10T00:15:48.059Z,58.28
2018-08-10T00:18:16.992Z,59.38
2018-08-10T00:20:45.914Z,59.40
2018-08-10T00:23:14.832Z,58.77
2018-08-10T00:25:43.794Z,59.37
2018-08-10T00:28:12.743Z,59.19
2018-08-10T00:30:41.652Z,57.46
2018-08-10T00:33:10.618Z,57.88
2018-08-10T00:35:39.541Z,58.19
2018-08-10T00:38:08.479Z,58.90
2018-08-10T00:40:37.453Z,58.33
2018-08-10T00:43:06.445Z,58.69
2018-08-10T00:45:35.343Z,59.52
2018-08-10T00:48:04.283Z,58.75
2018-08-10T00:50:33.259Z,58.90
2018-08-10T00:53:02.187Z,59.52
2018-08-10T00:55:31.100Z,59.46
2018-08-10T00:58:00.020Z,58.86
2018-08-10T01:00:28.991Z,59.77
2018-08-10T01:02:57.925Z,59.25
2018-08-10T01:05:26.874Z,57.61
2018-08-10T01:07:55.788Z,57.72
2018-08-10T01:10:24.735Z,57.09
2018-08-10T01:12:53.768Z,55.99
2018-08-10T01:15:22.716Z,56.18
2018-08-10T01:17:51.702Z,56.35
2018-08-10T01:20:23.013Z,56.92
2018-08-10T01:25:50.584Z,56.95
2018-08-10T01:28:19.564Z,56.66
2018-08-10T01:30:48.458Z,56.30
2018-08-10T01:33:17.407Z,56.20
2018-08-10T01:35:46.401Z,57.22
2018-08-10T01:38:15.341Z,57.49
2018-08-10T01:40:44.269Z,59.07
2018-08-10T01:43:13.228Z,59.25
2018-08-10T01:45:42.168Z,59.39
2018-08-10T01:48:11.133Z,59.09
2018-08-10T01:50:40.107Z,59.63
2018-08-10T01:53:09.047Z,61.50
2018-08-10T01:55:37.990Z,59.89
2018-08-10T01:58:06.927Z,61.79
2018-08-10T02:00:35.900Z,60.43
2018-08-10T02:03:04.960Z,59.47
2018-08-10T02:05:33.880Z,58.13
2018-08-10T02:08:02.844Z,59.49
2018-08-10T02:10:31.782Z,58.23
2018-08-10T02:13:00.734Z,58.34
2018-08-10T02:15:29.769Z,58.85
2018-08-10T02:17:58.727Z,57.85
2018-08-10T02:20:27.671Z,58.73
2018-08-10T02:22:56.633Z,59.03
2018-08-10T02:25:25.593Z,59.83
2018-08-10T02:27:54.547Z,59.43
2018-08-10T02:30:23.509Z,58.96
2018-08-10T02:32:52.794Z,61.42
2018-08-10T02:35:21.795Z,60.14
2018-08-10T02:37:50.744Z,60.06
2018-08-10T02:40:21.018Z,59.83
2018-08-10T02:42:50.739Z,60.22
2018-08-10T02:45:19.924Z,60.35
2018-08-10T02:47:49.523Z,60.35
2018-08-10T02:50:18.493Z,59.02
2018-08-10T02:52:47.600Z,59.47
2018-08-10T02:55:16.542Z,58.70
2018-08-10T02:57:45.478Z,58.94
2018-08-10T03:00:15.600Z,58.11
2018-08-10T03:02:45.004Z,58.01
2018-08-10T03:05:13.989Z,57.46
2018-08-10T03:07:43.237Z,58.27
2018-08-10T03:10:13.212Z,58.08
2018-08-10T03:12:42.182Z,57.42
2018-08-10T03:15:12.744Z,58.17
2018-08-10T03:17:41.791Z,57.48
2018-08-10T03:20:11.152Z,58.46
2018-08-10T03:22:40.634Z,57.43
2018-08-10T03:25:10.656Z,57.71
2018-08-10T03:27:39.660Z,57.97
2018-08-10T03:30:09.918Z,58.43
2018-08-10T03:32:38.954Z,58.26
2018-08-10T03:35:07.896Z,57.90
2018-08-10T03:37:37.279Z,56.87
2018-08-10T03:40:08.438Z,56.92
2018-08-10T03:42:37.371Z,56.67
2018-08-10T03:45:06.441Z,57.17
2018-08-10T03:47:35.478Z,57.09
2018-08-10T03:50:05.453Z,56.74
2018-08-10T03:52:34.433Z,56.61
2018-08-10T03:55:04.840Z,57.74
2018-08-10T03:57:33.783Z,57.85
2018-08-10T04:00:02.760Z,56.90
2018-08-10T04:02:31.795Z,56.35
2018-08-10T04:05:02.019Z,57.32
2018-08-10T04:07:30.946Z,56.72
2018-08-10T04:09:59.880Z,57.30
2018-08-10T04:12:28.886Z,57.85
2018-08-10T04:14:57.792Z,57.36
2018-08-10T04:17:27.188Z,57.71
2018-08-10T04:19:56.399Z,57.97
2018-08-10T04:22:26.089Z,57.44
2018-08-10T04:24:54.993Z,57.50
2018-08-10T04:27:23.943Z,58.29
2018-08-10T04:29:52.959Z,59.05
2018-08-10T04:32:21.892Z,58.07
2018-08-10T04:34:50.851Z,57.93
2018-08-10T04:37:19.895Z,58.09
2018-08-10T04:39:49.246Z,57.54
2018-08-10T04:42:18.275Z,57.96
2018-08-10T04:44:47.233Z,58.17
2018-08-10T04:47:16.159Z,58.35
2018-08-10T04:49:45.110Z,58.56
2018-08-10T04:52:14.000Z,57.99
2018-08-10T04:54:42.937Z,57.90
2018-08-10T04:57:11.870Z,57.68
2018-08-10T05:00:14.227Z,57.90
2018-08-10T05:02:43.229Z,57.10
2018-08-10T05:05:12.216Z,57.26
2018-08-10T05:07:41.977Z,57.57
2018-08-10T05:10:11.180Z,56.32
2018-08-10T05:12:40.674Z,56.42
2018-08-10T05:15:10.490Z,55.75
2018-08-10T05:17:39.801Z,56.10
2018-08-10T05:20:09.970Z,56.11
2018-08-10T05:22:39.406Z,55.78
2018-08-10T05:25:08.373Z,55.87
2018-08-10T05:27:37.572Z,57.09
2018-08-10T05:30:08.114Z,55.88
2018-08-10T05:32:37.069Z,55.60
2018-08-10T05:35:06.815Z,56.58
2018-08-10T05:37:35.772Z,56.44
2018-08-10T05:40:06.146Z,55.58
2018-08-10T05:42:35.141Z,55.88
2018-08-10T05:45:04.600Z,56.57
2018-08-10T05:47:33.717Z,56.01
2018-08-10T05:50:02.663Z,55.10
2018-08-10T05:52:31.662Z,55.35
2018-08-10T05:55:00.571Z,56.06
2018-08-10T05:57:29.777Z,54.66
2018-08-10T05:59:58.670Z,55.84
2018-08-10T06:02:27.624Z,55.71
2018-08-10T06:04:56.627Z,55.67
2018-08-10T06:07:25.748Z,56.08
2018-08-10T06:09:54.700Z,56.72
2018-08-10T06:12:23.835Z,55.60
2018-08-10T06:14:52.936Z,56.17
2018-08-10T06:17:21.863Z,56.46
2018-08-10T06:19:50.880Z,56.42
2018-08-10T06:22:19.784Z,55.42
2018-08-10T06:24:48.825Z,56.59
2018-08-10T06:27:17.809Z,57.02
2018-08-10T06:29:46.927Z,56.04
2018-08-10T06:32:15.815Z,56.13
2018-08-10T06:34:44.829Z,56.41
2018-08-10T06:37:13.747Z,57.59
2018-08-10T06:39:42.755Z,58.30
2018-08-10T06:42:11.622Z,58.86
2018-08-10T06:44:40.610Z,58.50
2018-08-10T06:47:09.550Z,57.70
2018-08-10T06:49:38.540Z,57.96
2018-08-10T06:52:07.498Z,57.68
2018-08-10T06:54:36.435Z,57.74
2018-08-10T06:57:06.149Z,60.02
2018-08-10T06:59:35.173Z,58.50
2018-08-10T07:02:04.104Z,58.56
2018-08-10T07:04:33.057Z,59.29
2018-08-10T07:07:02.180Z,59.89
2018-08-10T07:09:31.218Z,60.98
2018-08-10T07:12:00.438Z,61.19
2018-08-10T07:14:29.392Z,60.92
2018-08-10T07:16:58.341Z,62.01
2018-08-10T07:19:27.400Z,62.83
2018-08-10T07:21:56.599Z,62.26
2018-08-10T07:24:25.838Z,60.46
2018-08-10T07:26:55.056Z,60.43
2018-08-10T07:29:24.093Z,60.14
2018-08-10T07:31:53.944Z,60.05
2018-08-10T07:34:22.955Z,59.85
2018-08-10T07:36:52.055Z,60.04
2018-08-10T07:39:21.144Z,57.85
2018-08-10T07:41:50.134Z,58.04
2018-08-10T07:44:19.100Z,58.92
2018-08-10T07:46:48.044Z,58.16
2018-08-10T07:49:17.010Z,57.38
2018-08-10T07:51:45.966Z,57.52
2018-08-10T07:54:14.910Z,57.76
2018-08-10T07:56:44.028Z,57.06
2018-08-10T07:59:12.996Z,58.10
2018-08-10T08:01:41.912Z,57.82
2018-08-10T08:04:11.310Z,58.72
2018-08-10T08:06:40.284Z,57.25
2018-08-10T08:09:11.280Z,56.65
2018-08-10T08:11:40.279Z,57.20
2018-08-10T08:14:09.245Z,56.43
2018-08-10T08:16:38.217Z,55.52
2018-08-10T08:19:07.188Z,56.04
2018-08-10T08:21:36.192Z,56.42
2018-08-10T08:24:05.208Z,56.48
2018-08-10T08:26:34.276Z,56.89
2018-08-10T08:29:03.199Z,58.92
2018-08-10T08:31:32.140Z,59.54
2018-08-10T08:34:05.023Z,62.05
2018-08-10T08:36:33.944Z,64.18
2018-08-10T08:39:13.016Z,63.79
2018-08-10T08:41:42.108Z,63.63
2018-08-10T08:44:34.799Z,64.29
2018-08-10T08:47:05.519Z,63.31
2018-08-10T08:49:35.328Z,59.91
2018-08-10T08:52:04.503Z,57.77
2018-08-10T08:55:09.955Z,54.72
2018-08-10T08:57:38.904Z,52.92
2018-08-10T09:00:13.013Z,53.10
2018-08-10T09:02:42.168Z,53.17
2018-08-10T09:05:11.123Z,51.09
2018-08-10T09:07:40.274Z,50.52
2018-08-10T09:10:17.072Z,51.51
2018-08-10T09:12:46.162Z,50.14
2018-08-10T09:15:17.469Z,50.88
2018-08-10T09:17:46.456Z,51.18
2018-08-10T09:20:15.480Z,51.24
2018-08-10T09:22:44.468Z,54.43
2018-08-10T09:25:16.025Z,53.43
2018-08-10T09:27:45.099Z,54.09
2018-08-10T09:30:16.196Z,55.65
2018-08-10T09:32:45.377Z,54.91
2018-08-10T09:35:14.900Z,55.46
2018-08-10T09:37:44.203Z,53.26
2018-08-10T09:40:15.472Z,54.83
2018-08-10T09:42:45.110Z,53.19
2018-08-10T09:45:15.026Z,53.78
2018-08-10T09:47:46.197Z,52.68
2018-08-10T09:50:16.159Z,53.86
2018-08-10T09:52:51.932Z,52.56
2018-08-10T09:55:24.881Z,51.29
2018-08-10T09:57:56.327Z,50.72
2018-08-10T10:00:30.697Z,52.29
2018-08-10T10:03:05.141Z,49.93
2018-08-10T10:05:34.403Z,51.68
2018-08-10T10:08:03.348Z,51.32
2018-08-10T10:10:32.297Z,49.47
2018-08-10T10:13:01.306Z,50.48
2018-08-10T10:15:30.469Z,49.95
2018-08-10T10:17:59.462Z,49.73
2018-08-10T10:20:28.416Z,50.61
2018-08-10T10:22:57.741Z,50.19
2018-08-10T10:25:26.712Z,51.05
2018-08-10T10:27:55.641Z,49.38
2018-08-10T10:30:24.900Z,50.63
2018-08-10T10:32:53.934Z,48.60
2018-08-10T10:35:22.941Z,49.18
2018-08-10T10:37:52.596Z,46.14
2018-08-10T10:40:21.556Z,46.87
2018-08-10T10:42:50.666Z,48.52
2018-08-10T10:45:19.792Z,49.40
2018-08-10T10:47:48.959Z,45.98
2018-08-10T10:50:18.725Z,48.02
2018-08-10T10:52:47.980Z,45.14
2018-08-10T10:55:16.968Z,45.10
2018-08-10T10:57:46.131Z,46.15
2018-08-10T11:00:16.632Z,46.45
2018-08-10T11:02:46.836Z,47.07
2018-08-10T11:05:15.808Z,46.04
2018-08-10T11:07:45.045Z,45.08
2018-08-10T11:10:16.019Z,45.32
2018-08-10T11:12:44.968Z,44.17
2018-08-10T11:15:14.201Z,44.50
2018-08-10T11:17:43.141Z,42.40
2018-08-10T11:20:12.804Z,42.02
2018-08-10T11:22:42.246Z,41.61
2018-08-10T11:25:12.707Z,41.83
2018-08-10T11:27:42.333Z,40.30
2018-08-10T11:30:11.483Z,41.37
2018-08-10T11:32:40.841Z,39.65
2018-08-10T11:35:10.230Z,39.37
2018-08-10T11:37:39.182Z,39.33
2018-08-10T11:40:11.793Z,38.81
2018-08-10T11:45:18.504Z,41.63
2018-08-10T11:47:47.585Z,42.10
2018-08-10T11:50:16.539Z,40.52
2018-08-10T11:52:45.535Z,40.32
2018-08-10T11:55:15.204Z,39.63
2018-08-10T11:57:44.607Z,40.36
2018-08-10T12:00:14.832Z,39.34
2018-08-10T12:02:44.050Z,39.39
2018-08-10T12:05:13.963Z,41.42
2018-08-10T12:07:42.955Z,41.50
2018-08-10T12:10:11.950Z,41.81
2018-08-10T12:12:41.100Z,40.48
2018-08-10T12:15:11.981Z,40.51
2018-08-10T12:17:40.981Z,40.90
2018-08-10T12:20:10.685Z,40.51
2018-08-10T12:22:40.688Z,40.56
2018-08-10T12:25:09.659Z,41.54
2018-08-10T12:27:38.752Z,43.24
2018-08-10T12:30:09.513Z,40.23
2018-08-10T12:32:38.480Z,39.17
2018-08-10T12:35:08.149Z,39.32
2018-08-10T12:37:37.218Z,38.80
2018-08-10T12:40:06.463Z,38.92
2018-08-10T12:42:35.427Z,40.22
2018-08-10T12:45:04.576Z,39.46
2018-08-10T12:47:33.905Z,40.85
2018-08-10T12:50:02.945Z,40.62
2018-08-10T12:52:31.993Z,39.05
2018-08-10T12:55:01.863Z,39.33
2018-08-10T12:57:31.004Z,39.47
2018-08-10T12:59:59.979Z,42.04
2018-08-10T13:02:28.968Z,40.81
2018-08-10T13:04:57.860Z,41.21
2018-08-10T13:07:26.863Z,40.77
2018-08-10T13:09:55.862Z,40.43
2018-08-10T13:12:24.842Z,39.95
2018-08-10T13:14:53.939Z,41.33
2018-08-10T13:17:23.153Z,39.74
2018-08-10T13:19:52.124Z,39.81
2018-08-10T13:22:21.180Z,39.37
2018-08-10T13:24:56.686Z,40.18
2018-08-10T13:27:46.916Z,39.51
2018-08-10T13:30:18.495Z,39.54
2018-08-10T13:32:47.488Z,39.28
2018-08-10T13:35:16.596Z,40.67
2018-08-10T13:37:45.818Z,40.72
2018-08-10T13:40:14.976Z,39.07
2018-08-10T13:42:43.929Z,39.82
2018-08-10T13:45:14.035Z,40.22
2018-08-10T13:47:43.560Z,38.30
2018-08-10T13:50:14.680Z,38.87
2018-08-10T13:52:43.677Z,37.76
2018-08-10T13:55:15.119Z,35.10
2018-08-10T13:57:44.265Z,36.52
2018-08-10T14:00:22.686Z,36.23
2018-08-10T14:02:53.290Z,36.52
2018-08-10T14:05:23.207Z,38.11
2018-08-10T14:07:53.042Z,40.08
2018-08-10T14:10:21.999Z,36.97
2018-08-10T14:12:50.941Z,37.38
2018-08-10T14:15:19.880Z,37.57
2018-08-10T14:17:49.743Z,37.95
2018-08-10T14:20:20.171Z,36.44
2018-08-10T14:22:49.322Z,35.54
2018-08-10T14:25:18.339Z,36.07
2018-08-10T14:27:47.321Z,34.22
2018-08-10T14:30:16.828Z,35.59
2018-08-10T14:32:45.979Z,36.34
2018-08-10T14:35:15.077Z,35.54
2018-08-10T14:37:45.251Z,35.35
2018-08-10T14:40:14.553Z,38.13
2018-08-10T14:42:43.564Z,35.62
2018-08-10T14:45:13.987Z,36.36
2018-08-10T14:47:45.817Z,36.94
2018-08-10T14:50:36.950Z,37.08
2018-08-10T14:53:06.011Z,36.11
2018-08-10T14:55:36.668Z,35.71
2018-08-10T14:58:08.309Z,33.11
2018-08-10T15:00:37.557Z,32.82
2018-08-10T15:03:06.759Z,32.63
2018-08-10T15:05:35.752Z,34.29
2018-08-10T15:08:05.311Z,34.37
2018-08-10T15:10:34.663Z,31.50
2018-08-10T15:13:03.812Z,30.89
2018-08-10T15:15:32.570Z,30.07
2018-08-10T15:18:03.764Z,34.94
2018-08-10T15:20:34.528Z,37.53
2018-08-10T15:23:03.531Z,37.75
2018-08-10T15:25:32.470Z,40.04
2018-08-10T15:28:01.499Z,38.65
2018-08-10T15:30:30.579Z,41.50
2018-08-10T15:32:59.596Z,41.07
2018-08-10T15:35:28.923Z,43.90
2018-08-10T15:37:57.908Z,45.07
2018-08-10T15:40:26.847Z,45.07
2018-08-10T15:42:55.970Z,46.33
2018-08-10T15:45:24.997Z,46.52
2018-08-10T15:47:53.985Z,44.08
2018-08-10T15:50:22.975Z,43.21
2018-08-10T15:52:52.068Z,44.12
2018-08-10T15:55:21.352Z,44.72
2018-08-10T15:57:50.295Z,46.06
2018-08-10T16:00:22.619Z,44.45
2018-08-10T16:02:51.576Z,47.13
2018-08-10T16:05:20.548Z,47.67
2018-08-10T16:07:50.037Z,47.36
2018-08-10T16:10:19.003Z,46.87
2018-08-10T16:12:49.092Z,44.63
2018-08-10T16:15:19.446Z,45.93
2018-08-10T16:17:48.414Z,44.72
2018-08-10T16:20:20.072Z,47.46
2018-08-10T16:22:49.235Z,47.01
2018-08-10T16:25:18.165Z,47.25
2018-08-10T16:27:47.089Z,46.91
2018-08-10T16:30:16.787Z,49.00
2018-08-10T16:32:46.373Z,48.90
2018-08-10T16:35:15.793Z,48.90
2018-08-10T16:37:45.913Z,49.42
2018-08-10T16:40:16.338Z,48.18
2018-08-10T16:42:45.317Z,48.52
2018-08-10T16:45:14.872Z,48.14
2018-08-10T16:47:44.273Z,48.44
2018-08-10T16:50:15.303Z,49.35
2018-08-10T16:52:44.804Z,49.65
2018-08-10T16:55:18.501Z,50.06
2018-08-10T16:57:48.008Z,50.45
2018-08-10T17:00:20.334Z,49.95
2018-08-10T17:02:49.565Z,50.07
2018-08-10T17:05:18.551Z,50.99
2018-08-10T17:07:47.476Z,51.28
2018-08-10T17:10:16.489Z,52.49
2018-08-10T17:12:45.952Z,52.33
2018-08-10T17:15:17.391Z,52.97
2018-08-10T17:17:49.442Z,53.86
2018-08-10T17:20:20.445Z,53.86
2018-08-10T17:22:49.543Z,54.91
2018-08-10T17:25:19.943Z,54.89
2018-08-10T17:27:48.976Z,56.44
2018-08-10T17:30:19.264Z,55.71
2018-08-10T17:32:49.263Z,55.92
2018-08-10T17:35:18.690Z,55.22
2018-08-10T17:37:48.889Z,55.44
2018-08-10T17:40:21.967Z,56.46
2018-08-10T17:42:51.143Z,55.85
2018-08-10T17:45:22.482Z,57.42
2018-08-10T17:47:52.215Z,58.02
2018-08-10T17:50:22.542Z,59.10
2018-08-10T17:52:53.799Z,59.93
2018-08-10T17:55:23.557Z,60.96
2018-08-10T17:57:52.630Z,60.72
2018-08-10T18:00:24.528Z,61.18
2018-08-10T18:02:53.595Z,61.41
2018-08-10T18:05:22.790Z,61.02
2018-08-10T18:07:52.522Z,62.08
2018-08-10T18:10:21.720Z,62.74
2018-08-10T18:12:50.941Z,61.94
2018-08-10T18:15:20.733Z,62.34
2018-08-10T18:17:50.040Z,62.68
2018-08-10T18:20:22.912Z,62.57
2018-08-10T18:22:57.974Z,62.81
2018-08-10T18:25:29.327Z,63.55
2018-08-10T18:27:58.583Z,63.25
2018-08-10T18:30:29.057Z,63.24
2018-08-10T18:32:58.026Z,63.45
2018-08-10T18:35:26.996Z,63.83
2018-08-10T18:37:55.917Z,64.02
2018-08-10T18:40:25.010Z,63.97
2018-08-10T18:42:53.971Z,64.36
2018-08-10T18:45:22.969Z,63.48
2018-08-10T18:47:51.932Z,64.12
2018-08-10T18:50:25.578Z,64.44
2018-08-10T18:52:55.792Z,64.58
2018-08-10T18:55:24.893Z,64.72
2018-08-10T18:57:54.012Z,64.91
2018-08-10T19:00:24.704Z,65.50
2018-08-10T19:02:54.606Z,65.88
2018-08-10T19:05:23.561Z,65.53
2018-08-10T19:07:52.489Z,66.21
2018-08-10T19:10:23.927Z,65.98
2018-08-10T19:12:52.867Z,65.92
2018-08-10T19:15:21.897Z,66.47
2018-08-10T19:17:51.047Z,67.54
2018-08-10T19:20:21.212Z,66.29
2018-08-10T19:22:51.963Z,66.54
2018-08-10T19:25:21.201Z,66.79
2018-08-10T19:27:51.228Z,66.63
2018-08-10T19:30:21.928Z,66.87
2018-08-10T19:32:50.915Z,66.96
2018-08-10T19:35:20.103Z,67.57
2018-08-10T19:37:49.056Z,67.91
2018-08-10T19:40:19.089Z,67.81
2018-08-10T19:42:48.424Z,67.44
2018-08-10T19:45:18.248Z,67.60
2018-08-10T19:47:47.356Z,67.61
2018-08-10T19:50:17.240Z,67.47
2018-08-10T19:52:47.224Z,68.00
2018-08-10T19:55:16.609Z,68.10
2018-08-10T19:57:45.746Z,68.28
2018-08-10T20:00:16.403Z,67.65
2018-08-10T20:02:47.915Z,67.93
2018-08-10T20:05:17.217Z,68.66
2018-08-10T20:07:46.501Z,68.37
2018-08-10T20:10:15.968Z,68.17
2018-08-10T20:12:45.364Z,69.30
2018-08-10T20:15:15.645Z,69.06
2018-08-10T20:17:44.715Z,69.65
2018-08-10T20:20:15.544Z,69.04
2018-08-10T20:22:44.864Z,69.46
2018-08-10T20:25:14.483Z,69.31
2018-08-10T20:27:43.451Z,69.57
2018-08-10T20:30:15.665Z,69.03
2018-08-10T20:32:45.307Z,68.94
2018-08-10T20:35:15.892Z,69.25
2018-08-10T20:37:44.879Z,69.20
2018-08-10T20:40:15.944Z,69.25
2018-08-10T20:42:44.886Z,69.12
2018-08-10T20:45:14.084Z,68.43
2018-08-10T20:47:43.354Z,68.76
2018-08-10T20:50:14.771Z,68.23
2018-08-10T20:52:44.418Z,68.42
2018-08-10T20:55:13.475Z,67.96
2018-08-10T20:57:42.788Z,68.50
2018-08-10T21:00:12.009Z,67.17
2018-08-10T21:02:42.662Z,67.78
2018-08-10T21:05:12.259Z,67.96
2018-08-10T21:07:41.291Z,69.13
2018-08-10T21:10:12.607Z,69.10
2018-08-10T21:12:42.647Z,66.07
2018-08-10T21:15:12.904Z,67.21
2018-08-10T21:17:42.746Z,65.89
2018-08-10T21:20:13.015Z,65.81
2018-08-10T21:22:42.090Z,65.64
2018-08-10T21:25:11.957Z,65.93
2018-08-10T21:27:41.705Z,66.09
2018-08-10T21:30:16.082Z,68.38
2018-08-10T21:32:45.132Z,69.66
2018-08-10T21:35:14.099Z,70.02
2018-08-10T21:37:43.239Z,70.91
2018-08-10T21:40:12.654Z,71.90
2018-08-10T21:42:42.588Z,71.59
2018-08-10T21:45:11.573Z,72.03
2018-08-10T21:47:40.604Z,71.00
2018-08-10T21:50:13.379Z,71.43
2018-08-10T21:52:43.201Z,71.48
2018-08-10T21:55:12.592Z,71.94
2018-08-10T21:57:41.944Z,71.90
2018-08-10T22:00:20.130Z,70.92
2018-08-10T22:02:49.273Z,72.57
2018-08-10T22:05:18.210Z,72.63
2018-08-10T22:07:47.161Z,72.45
2018-08-10T22:10:16.120Z,71.57
2018-08-10T22:12:48.671Z,69.68
2018-08-10T22:15:23.227Z,69.67
2018-08-10T22:17:57.659Z,69.62
2018-08-10T22:20:26.620Z,68.64
2018-08-10T22:22:55.796Z,69.58
2018-08-10T22:25:24.824Z,68.15
2018-08-10T22:27:54.287Z,68.65
2018-08-10T22:30:23.501Z,69.13
2018-08-10T22:32:52.724Z,69.49
2018-08-10T22:35:21.903Z,69.62
2018-08-10T22:37:50.894Z,70.45
2018-08-10T22:40:20.147Z,71.41
2018-08-10T22:42:49.109Z,71.79
2018-08-10T22:45:18.397Z,71.56
2018-08-10T22:47:49.492Z,72.53
2018-08-10T22:50:20.352Z,72.72
2018-08-10T22:52:49.309Z,72.50
2018-08-10T22:55:18.288Z,72.60
2018-08-10T22:57:47.284Z,72.91
2018-08-10T23:00:16.364Z,72.52
2018-08-10T23:02:45.305Z,73.03
2018-08-10T23:05:14.282Z,73.20
2018-08-10T23:07:43.238Z,72.50
2018-08-10T23:10:13.228Z,73.43
2018-08-10T23:12:42.509Z,72.84
2018-08-10T23:15:11.825Z,73.96
2018-08-10T23:17:41.466Z,74.77
2018-08-10T23:20:12.888Z,74.21
2018-08-10T23:22:41.870Z,74.84
2018-08-10T23:25:12.823Z,75.63
2018-08-10T23:27:42.966Z,75.16
2018-08-10T23:30:16.132Z,75.37
2018-08-10T23:32:45.645Z,75.91
2018-08-10T23:35:14.740Z,75.22
2018-08-10T23:37:43.904Z,76.01
2018-08-10T23:40:13.959Z,76.03
2018-08-10T23:42:43.381Z,76.17
2018-08-10T23:45:13.414Z,75.94
2018-08-10T23:47:43.057Z,76.07
2018-08-10T23:50:13.848Z,76.10
2018-08-10T23:52:43.140Z,76.30
2018-08-10T23:55:12.765Z,75.78
2018-08-10T23:57:42.055Z,75.95
